Chino Valley, AZ

4:26 PM MST on February 22, 2017 (GMT -0700)
Road 1 North | | Change Station

Elev 4751 ft 34.75 °N, 112.46 °W | Updated 15 seconds ago

Partly Cloudy
Partly Cloudy
56.8 °F
Feels Like 56.8 °F
N
0.0
Wind Variable Wind from South

Today
High -- | Low -- °F
--% Chance of Precip.
Yesterday
High -- | Low -- °F
Precip. -- in
Pressure 29.79 in
Visibility 10.0 miles
Clouds Few 3000 ft
Scattered Clouds 12000 ft
Dew Point 32 °F
Humidity 39%
Rainfall 0.36 in
Snow Depth Not available.
7:07 AM 6:19 PM
Waning Crescent, 14% visible
METAR KPRC 222253Z 21021G29KT 10SM FEW030 SCT120 13/M01 A2991 RMK AO2 PK WND 21029/2252 SLP086 T01281011
Pressure 29.79 in
Visibility 10.0 miles
Clouds Few 3000 ft
Scattered Clouds 12000 ft
Dew Point 32 °F
Humidity 39%
Rainfall 0.36 in
Snow Depth Not available.
7:07 AM 6:19 PM
Waning Crescent, 14% visible
METAR KPRC 222253Z 21021G29KT 10SM FEW030 SCT120 13/M01 A2991 RMK AO2 PK WND 21029/2252 SLP086 T01281011

Get Your Daily Forecast Email!

Thanks for signing up!

Be on the lookout for a verification email in your inbox.

You'll start receiving the daily forecast at 8 AM.

×

10-Day Weather Forecast

Almanac

Astronomy

Feb. 22, 2017 Rise Set
Actual Time
Civil Twilight
Nautical Twilight
Astronomical Twilight
Moon
Length of Visible Light
Length of Day
Tomorrow will be .
, % of the Moon is Illuminated

Today's Extremes

State Highs State Lows

Community

WunderPhotos

Upload Photos

1,962,540 photos uploaded!

WunderBlog® & News

Nearby

Air Quality

  Air Quality AQ Index Pollutant
Not available.

Snow Depth

Station Depth Elevation

Earthquake Activity

City Distance Mag. Time & Date
Minimum magnitude displayed is 2.5.

Coastal Water Temperatures

Place Temperature

Stations

Nearby Weather Stations

Station Location Temp. Windchill Dew Point Humidity Wind Precip. Elev Updated Type
                   

Watches & Warnings

There are currently no watches in effect.